Hurlburt Field Mary Esther US
ICAO: KHRT
IATA: HRT
Category: Medium
Scheduled Services: No

Elevation: 38 ft
TransAlt. 18000 ft.

Airport Communications:
EGLIN APP:37.915
EGLIN APP:133
ATIS:36.067
EGLIN DEP:132.1
GND:123.975
PMSV METRO:39.075
COMD POST:140.4
PTD:37.22
TWR:126.5

KHRT Zoom In..

Runways:

(A) RW 18 length 9600 ft width 150 ft
---- / hdg 178

(B) RW 36 length 9600 ft width 150 ft
ILS 111.30 / hdg 358

Location; KHRT
Day. 05 / Time. 13.57 Zulu
* Altimeter: 30.00
* Temperature: 30° c. 86°f.
* Wind from: 120° Speed 02 kn.
Dewpoint: 22° c.
Visibility: 10 Statute Miles.
Clouds: Scattered 2500 ft.
Clouds: Broken 35000 ft.
Conditions: Cumulonimbus.

KHRT 051357Z 12002KT 10SM SCT025 BKN350 30/22 A3000 RMK AO2A CB 20SW MOV NW SLPNO WND/ALSTG ESTMD


Wind From 120°
Speed 02 kn.

 
 
jpsmedia worldairports.se 2020   terms of use